createdAt,value
2018-06-15T00:02:26.499Z,17.20
2018-06-15T00:04:54.393Z,17.10
2018-06-15T00:07:22.028Z,17.10
2018-06-15T00:09:49.577Z,17.10
2018-06-15T00:12:17.158Z,17.10
2018-06-15T00:14:44.782Z,17.10
2018-06-15T00:17:12.344Z,17.10
2018-06-15T00:19:39.937Z,17.10
2018-06-15T00:22:07.493Z,17.10
2018-06-15T00:24:35.166Z,17.10
2018-06-15T00:27:02.742Z,17.00
2018-06-15T00:29:30.364Z,17.00
2018-06-15T00:31:57.950Z,17.00
2018-06-15T00:34:25.576Z,17.00
2018-06-15T00:36:53.182Z,17.00
2018-06-15T00:39:20.769Z,17.00
2018-06-15T00:44:42.631Z,17.00
2018-06-15T00:47:10.284Z,17.00
2018-06-15T00:49:37.919Z,17.00
2018-06-15T00:52:05.623Z,17.00
2018-06-15T00:54:33.213Z,17.00
2018-06-15T00:57:12.246Z,17.00
2018-06-15T00:59:51.792Z,17.00
2018-06-15T01:02:19.381Z,17.00
2018-06-15T01:04:46.892Z,17.00
2018-06-15T01:07:14.509Z,17.00
2018-06-15T01:09:42.070Z,16.90
2018-06-15T01:12:09.694Z,16.90
2018-06-15T01:14:37.180Z,16.90
2018-06-15T01:17:04.944Z,16.90
2018-06-15T01:19:32.664Z,16.90
2018-06-15T01:22:00.311Z,16.90
2018-06-15T01:24:27.969Z,16.80
2018-06-15T01:26:55.611Z,16.80
2018-06-15T01:29:23.347Z,16.80
2018-06-15T01:31:50.893Z,16.80
2018-06-15T01:34:18.860Z,16.80
2018-06-15T01:36:46.985Z,16.80
2018-06-15T01:39:14.776Z,16.80
2018-06-15T01:41:42.348Z,16.80
2018-06-15T01:44:09.905Z,16.80
2018-06-15T01:46:37.517Z,16.80
2018-06-15T01:49:05.139Z,16.80
2018-06-15T01:51:33.080Z,16.80
2018-06-15T01:54:00.964Z,16.80
2018-06-15T01:56:28.983Z,16.80
2018-06-15T01:58:56.732Z,16.80
2018-06-15T02:01:24.809Z,16.80
2018-06-15T02:03:52.598Z,16.80
2018-06-15T02:06:20.292Z,16.80
2018-06-15T02:08:48.084Z,16.80
2018-06-15T02:11:15.856Z,16.70
2018-06-15T02:13:43.655Z,16.80
2018-06-15T02:16:11.443Z,16.80
2018-06-15T02:18:39.274Z,16.70
2018-06-15T02:21:07.012Z,16.70
2018-06-15T02:23:34.763Z,16.60
2018-06-15T02:26:02.552Z,16.60
2018-06-15T02:28:30.294Z,16.60
2018-06-15T02:30:58.032Z,16.60
2018-06-15T02:33:25.841Z,16.60
2018-06-15T02:35:53.566Z,16.50
2018-06-15T02:38:21.457Z,16.50
2018-06-15T02:40:49.480Z,16.50
2018-06-15T02:43:17.518Z,16.50
2018-06-15T02:45:45.300Z,16.50
2018-06-15T02:48:13.001Z,16.50
2018-06-15T02:50:40.737Z,16.50
2018-06-15T02:53:30.833Z,16.50
2018-06-15T02:55:58.597Z,16.50
2018-06-15T02:58:26.331Z,16.50
2018-06-15T03:00:54.137Z,16.50
2018-06-15T03:03:21.793Z,16.50
2018-06-15T03:05:49.481Z,16.40
2018-06-15T03:08:17.083Z,16.50
2018-06-15T03:10:44.733Z,16.40
2018-06-15T03:13:12.373Z,16.40
2018-06-15T03:15:40.057Z,16.40
2018-06-15T03:18:07.791Z,16.40
2018-06-15T03:20:35.461Z,16.40
2018-06-15T03:23:03.041Z,16.30
2018-06-15T03:25:31.436Z,16.30
2018-06-15T03:27:59.197Z,16.30
2018-06-15T03:30:26.917Z,16.30
2018-06-15T03:32:56.751Z,16.30
2018-06-15T03:35:24.756Z,16.30
2018-06-15T03:37:52.600Z,16.30
2018-06-15T03:40:20.645Z,16.30
2018-06-15T03:42:48.333Z,16.30
2018-06-15T03:45:16.055Z,16.20
2018-06-15T03:47:43.871Z,16.30
2018-06-15T03:50:11.591Z,16.30
2018-06-15T03:52:42.557Z,16.30
2018-06-15T03:55:10.329Z,16.30
2018-06-15T03:57:37.986Z,16.20
2018-06-15T04:00:05.627Z,16.20
2018-06-15T04:02:33.668Z,16.30
2018-06-15T04:10:47.768Z,16.20
2018-06-15T04:13:34.069Z,16.20
2018-06-15T04:16:24.794Z,16.20
2018-06-15T04:18:54.570Z,16.20
2018-06-15T04:21:23.202Z,16.20
2018-06-15T04:23:51.146Z,16.20
2018-06-15T04:26:57.782Z,16.20
2018-06-15T04:32:36.276Z,16.30
2018-06-15T04:38:39.188Z,16.30
2018-06-15T04:41:47.790Z,16.30
2018-06-15T05:06:59.807Z,16.00
2018-06-15T05:09:27.906Z,16.00
2018-06-15T05:12:01.134Z,16.00
2018-06-15T05:20:34.744Z,16.00
2018-06-15T05:23:03.746Z,16.00
2018-06-15T05:25:31.285Z,16.10
2018-06-15T05:27:58.833Z,16.10
2018-06-15T05:30:26.357Z,16.20
2018-06-15T05:32:53.888Z,16.10
2018-06-15T05:35:21.528Z,16.20
2018-06-15T05:37:48.909Z,16.20
2018-06-15T05:40:16.490Z,16.20
2018-06-15T05:42:44.166Z,16.20
2018-06-15T05:45:11.708Z,16.20
2018-06-15T05:47:39.311Z,16.30
2018-06-15T05:50:06.940Z,16.30
2018-06-15T05:52:34.592Z,16.30
2018-06-15T05:58:18.577Z,16.40
2018-06-15T06:00:46.114Z,16.40
2018-06-15T06:06:00.107Z,16.50
2018-06-15T06:11:21.048Z,16.50
2018-06-15T06:14:07.298Z,16.60
2018-06-15T06:16:35.192Z,16.60
2018-06-15T06:19:07.824Z,16.70
2018-06-15T06:21:35.816Z,16.70
2018-06-15T06:24:03.571Z,16.70
2018-06-15T06:26:31.294Z,16.70
2018-06-15T06:28:58.840Z,16.70
2018-06-15T06:31:26.399Z,16.70
2018-06-15T06:33:53.936Z,16.70
2018-06-15T06:36:21.510Z,16.80
2018-06-15T06:39:02.290Z,16.70
2018-06-15T06:41:34.410Z,16.80
2018-06-15T06:44:08.663Z,16.80
2018-06-15T06:46:42.336Z,16.80
2018-06-15T06:49:16.214Z,16.80
2018-06-15T06:51:46.050Z,16.90
2018-06-15T06:54:13.641Z,16.90
2018-06-15T06:56:41.387Z,17.00
2018-06-15T06:59:09.022Z,17.00
2018-06-15T07:01:36.609Z,17.00
2018-06-15T07:04:04.234Z,17.10
2018-06-15T07:06:31.879Z,17.10
2018-06-15T07:08:59.609Z,17.20
2018-06-15T07:11:28.394Z,17.20
2018-06-15T07:13:56.097Z,17.30
2018-06-15T07:16:23.800Z,17.30
2018-06-15T07:18:51.465Z,17.30
2018-06-15T07:21:19.214Z,17.30
2018-06-15T07:23:46.838Z,17.30
2018-06-15T07:26:14.613Z,17.30
2018-06-15T07:28:42.513Z,17.40
2018-06-15T07:31:10.309Z,17.40
2018-06-15T07:33:40.525Z,17.50
2018-06-15T07:36:08.535Z,17.50
2018-06-15T07:38:36.566Z,17.60
2018-06-15T07:41:04.413Z,17.60
2018-06-15T07:43:32.122Z,17.70
2018-06-15T07:45:59.978Z,17.70
2018-06-15T07:48:27.778Z,17.80
2018-06-15T07:51:14.840Z,17.80
2018-06-15T07:53:42.531Z,17.90
2018-06-15T07:56:10.353Z,18.00
2018-06-15T07:58:38.212Z,18.00
2018-06-15T08:01:05.952Z,18.10
2018-06-15T08:03:33.728Z,18.10
2018-06-15T08:06:01.339Z,18.20
2018-06-15T08:08:29.137Z,18.30
2018-06-15T08:10:56.966Z,18.30
2018-06-15T08:13:24.780Z,18.40
2018-06-15T08:15:52.590Z,18.40
2018-06-15T08:18:20.368Z,18.50
2018-06-15T08:20:48.138Z,18.50
2018-06-15T08:23:20.164Z,18.50
2018-06-15T08:25:47.914Z,18.50
2018-06-15T08:28:15.571Z,18.60
2018-06-15T08:30:43.267Z,18.60
2018-06-15T08:33:11.052Z,18.70
2018-06-15T08:35:38.861Z,18.80
2018-06-15T08:38:06.546Z,18.80
2018-06-15T08:40:34.220Z,18.80
2018-06-15T08:43:01.909Z,18.90
2018-06-15T08:45:29.640Z,18.90
2018-06-15T08:47:57.332Z,19.00
2018-06-15T08:50:24.986Z,19.10
2018-06-15T08:52:52.691Z,19.20
2018-06-15T08:56:41.717Z,19.30
2018-06-15T08:59:09.422Z,19.30
2018-06-15T09:04:34.712Z,19.40
2018-06-15T09:07:03.501Z,19.40
2018-06-15T09:09:31.317Z,19.40
2018-06-15T09:11:59.188Z,19.40
2018-06-15T09:14:37.111Z,19.40
2018-06-15T09:20:24.562Z,19.50
2018-06-15T09:22:52.358Z,19.50
2018-06-15T09:25:20.076Z,19.50
2018-06-15T09:27:47.938Z,19.60
2018-06-15T09:30:15.916Z,19.60
2018-06-15T09:32:43.842Z,19.70
2018-06-15T09:35:11.508Z,19.70
2018-06-15T09:37:43.447Z,19.70
2018-06-15T09:40:11.304Z,19.70
2018-06-15T09:45:41.344Z,19.80
2018-06-15T09:48:09.027Z,19.80
2018-06-15T09:50:36.636Z,19.80
2018-06-15T09:53:04.460Z,19.90
2018-06-15T09:55:32.462Z,19.90
2018-06-15T09:58:17.415Z,19.90
2018-06-15T10:00:52.489Z,19.90
2018-06-15T10:03:20.891Z,19.90
2018-06-15T10:05:48.804Z,19.90
2018-06-15T10:08:26.689Z,20.10
2018-06-15T10:14:15.446Z,20.10
2018-06-15T10:16:48.753Z,20.20
2018-06-15T10:22:23.546Z,20.40
2018-06-15T10:24:51.141Z,20.40
2018-06-15T10:27:19.065Z,20.50
2018-06-15T10:29:46.765Z,20.50
2018-06-15T10:32:14.444Z,20.60
2018-06-15T10:34:42.270Z,20.60
2018-06-15T10:37:09.957Z,20.60
2018-06-15T10:39:37.647Z,20.60
2018-06-15T10:42:05.300Z,20.70
2018-06-15T10:44:34.890Z,20.80
2018-06-15T10:47:07.623Z,20.80
2018-06-15T10:49:35.588Z,20.90
2018-06-15T10:52:11.483Z,20.90
2018-06-15T10:54:39.112Z,21.00
2018-06-15T10:57:06.721Z,21.10
2018-06-15T10:59:34.353Z,21.10
2018-06-15T11:02:01.955Z,21.10
2018-06-15T11:04:29.691Z,21.10
2018-06-15T11:09:54.465Z,21.30
2018-06-15T11:12:22.103Z,21.40
2018-06-15T11:14:49.868Z,21.40
2018-06-15T11:17:17.793Z,21.30
2018-06-15T11:19:45.518Z,21.40
2018-06-15T11:22:15.643Z,21.50
2018-06-15T11:24:43.389Z,21.50
2018-06-15T11:27:11.219Z,21.60
2018-06-15T11:29:39.004Z,21.70
2018-06-15T11:32:07.561Z,21.70
2018-06-15T11:34:35.459Z,21.80
2018-06-15T11:37:03.389Z,21.80
2018-06-15T11:39:31.149Z,21.80
2018-06-15T11:42:08.602Z,21.80
2018-06-15T11:44:36.529Z,21.90
2018-06-15T11:47:04.293Z,21.90
2018-06-15T11:49:32.052Z,21.90
2018-06-15T11:51:59.916Z,22.00
2018-06-15T11:54:27.718Z,22.00
2018-06-15T11:56:55.544Z,22.10
2018-06-15T11:59:23.626Z,22.10
2018-06-15T12:01:52.541Z,22.20
2018-06-15T12:04:20.390Z,22.30
2018-06-15T12:06:49.632Z,22.30
2018-06-15T12:09:17.998Z,22.30
2018-06-15T12:11:45.837Z,22.20
2018-06-15T12:14:13.693Z,22.20
2018-06-15T12:16:41.516Z,22.10
2018-06-15T12:19:12.905Z,22.20
2018-06-15T12:21:40.719Z,22.20
2018-06-15T12:24:08.497Z,22.40
2018-06-15T12:26:36.470Z,22.40
2018-06-15T12:29:04.435Z,22.50
2018-06-15T12:31:32.279Z,22.60
2018-06-15T12:34:01.255Z,22.70
2018-06-15T12:36:29.260Z,22.80
2018-06-15T12:38:56.989Z,22.80
2018-06-15T12:41:24.785Z,22.70
2018-06-15T12:43:52.752Z,22.70
2018-06-15T12:46:20.600Z,22.70
2018-06-15T12:48:48.428Z,22.70
2018-06-15T12:51:21.196Z,22.70
2018-06-15T12:53:48.855Z,22.70
2018-06-15T12:56:16.401Z,22.70
2018-06-15T12:58:44.165Z,22.70
2018-06-15T13:01:12.019Z,22.80
2018-06-15T13:03:39.605Z,22.80
2018-06-15T13:06:07.231Z,22.70
2018-06-15T13:08:35.100Z,22.70
2018-06-15T13:11:02.717Z,22.60
2018-06-15T13:13:30.434Z,22.60
2018-06-15T13:15:58.093Z,22.60
2018-06-15T13:18:25.809Z,22.80
2018-06-15T13:20:53.497Z,22.80
2018-06-15T13:23:21.343Z,22.90
2018-06-15T13:25:57.996Z,23.00
2018-06-15T13:28:35.383Z,23.10
2018-06-15T13:40:55.127Z,23.00
2018-06-15T13:43:40.779Z,23.00
2018-06-15T13:46:15.267Z,23.00
2018-06-15T13:48:46.145Z,23.00
2018-06-15T14:00:19.743Z,23.20
2018-06-15T14:02:47.768Z,23.10
2018-06-15T14:05:16.234Z,23.00
2018-06-15T14:07:45.010Z,23.00
2018-06-15T14:10:13.291Z,23.10
2018-06-15T14:12:41.368Z,23.10
2018-06-15T14:15:09.266Z,23.20
2018-06-15T14:17:36.987Z,23.20
2018-06-15T14:20:11.518Z,23.20
2018-06-15T14:22:39.378Z,23.30
2018-06-15T14:25:07.576Z,23.30
2018-06-15T14:27:35.184Z,23.40
2018-06-15T14:30:04.521Z,23.50
2018-06-15T14:32:32.257Z,23.50
2018-06-15T14:34:59.922Z,23.40
2018-06-15T14:37:27.644Z,23.30
2018-06-15T14:39:55.332Z,23.20
2018-06-15T14:42:23.744Z,23.20
2018-06-15T14:44:52.358Z,23.20
2018-06-15T14:47:20.151Z,23.20
2018-06-15T14:49:49.404Z,23.30
2018-06-15T14:52:36.399Z,23.40
2018-06-15T14:55:21.843Z,23.50
2018-06-15T14:57:53.097Z,23.50
2018-06-15T15:02:59.409Z,23.50
2018-06-15T15:05:27.407Z,23.50
2018-06-15T15:08:00.222Z,23.40
2018-06-15T15:10:29.277Z,23.30
2018-06-15T15:13:07.843Z,23.10
2018-06-15T15:18:15.950Z,23.00
2018-06-15T15:20:48.743Z,23.00
2018-06-15T15:23:16.466Z,23.10
2018-06-15T15:25:44.047Z,23.10
2018-06-15T15:28:11.676Z,23.10
2018-06-15T15:30:57.854Z,23.20
2018-06-15T15:33:25.460Z,23.20
2018-06-15T15:35:53.134Z,23.20
2018-06-15T15:38:20.807Z,23.30
2018-06-15T15:40:48.487Z,23.30
2018-06-15T15:43:24.364Z,23.30
2018-06-15T15:45:51.981Z,23.30
2018-06-15T15:48:19.565Z,23.30
2018-06-15T15:51:02.805Z,23.30
2018-06-15T15:58:01.644Z,23.30
2018-06-15T16:00:29.142Z,23.30
2018-06-15T16:02:56.754Z,23.30
2018-06-15T16:05:24.355Z,23.30
2018-06-15T16:08:07.623Z,23.20
2018-06-15T16:10:41.511Z,23.20
2018-06-15T16:16:00.112Z,23.20
2018-06-15T16:18:27.673Z,23.20
2018-06-15T16:20:55.321Z,23.20
2018-06-15T16:23:23.012Z,23.10
2018-06-15T16:25:50.548Z,23.10
2018-06-15T16:28:18.105Z,23.10
2018-06-15T16:30:45.626Z,23.20
2018-06-15T16:33:13.166Z,23.20
2018-06-15T16:35:40.881Z,23.20
2018-06-15T16:38:08.528Z,23.30
2018-06-15T16:40:37.680Z,23.20
2018-06-15T16:43:05.615Z,23.20
2018-06-15T16:45:33.494Z,23.20
2018-06-15T16:48:01.219Z,23.10
2018-06-15T16:50:29.101Z,23.20
2018-06-15T16:52:56.760Z,23.10
2018-06-15T16:55:24.372Z,23.20
2018-06-15T16:57:52.050Z,23.20
2018-06-15T17:00:19.744Z,23.10
2018-06-15T17:02:47.454Z,23.10
2018-06-15T17:05:15.031Z,23.00
2018-06-15T17:13:28.460Z,22.90
2018-06-15T17:15:56.163Z,22.90
2018-06-15T17:18:23.778Z,22.90
2018-06-15T17:20:51.463Z,22.90
2018-06-15T17:23:19.177Z,22.90
2018-06-15T17:26:03.520Z,22.80
2018-06-15T17:28:31.145Z,22.80
2018-06-15T17:30:58.839Z,22.90
2018-06-15T17:33:26.403Z,22.80
2018-06-15T17:35:54.186Z,22.80
2018-06-15T17:38:22.171Z,22.80
2018-06-15T17:40:49.756Z,22.80
2018-06-15T17:43:17.354Z,22.70
2018-06-15T17:45:44.966Z,22.70
2018-06-15T17:48:12.763Z,22.70
2018-06-15T17:50:40.419Z,22.70
2018-06-15T17:53:08.130Z,22.70
2018-06-15T17:55:35.965Z,22.70
2018-06-15T17:58:03.845Z,22.70
2018-06-15T18:00:31.465Z,22.60
2018-06-15T18:03:11.395Z,22.60
2018-06-15T18:05:39.704Z,22.60
2018-06-15T18:08:07.390Z,22.50
2018-06-15T18:10:35.131Z,22.50
2018-06-15T18:13:02.653Z,22.50
2018-06-15T18:15:30.270Z,22.50
2018-06-15T18:17:57.796Z,22.40
2018-06-15T18:20:25.438Z,22.40
2018-06-15T18:25:46.815Z,22.30
2018-06-15T18:28:14.450Z,22.30
2018-06-15T18:30:42.025Z,22.20
2018-06-15T18:33:09.548Z,22.20
2018-06-15T18:35:37.176Z,22.10
2018-06-15T18:41:03.760Z,22.00
2018-06-15T18:43:31.299Z,22.00
2018-06-15T18:45:58.823Z,22.00
2018-06-15T18:48:26.365Z,21.90
2018-06-15T18:50:53.922Z,21.90
2018-06-15T18:53:21.395Z,21.90
2018-06-15T18:55:48.980Z,21.90
2018-06-15T18:58:16.507Z,21.80
2018-06-15T19:00:44.153Z,21.90
2018-06-15T19:03:14.092Z,21.80
2018-06-15T19:05:42.502Z,21.80
2018-06-15T19:10:37.852Z,21.70
2018-06-15T19:13:05.812Z,21.70
2018-06-15T19:15:34.368Z,21.70
2018-06-15T19:18:04.167Z,21.60
2018-06-15T19:20:32.296Z,21.60
2018-06-15T19:22:59.943Z,21.60
2018-06-15T19:25:27.724Z,21.60
2018-06-15T19:27:55.421Z,21.60
2018-06-15T19:30:23.374Z,21.60
2018-06-15T19:32:52.573Z,21.60
2018-06-15T19:35:20.387Z,21.60
2018-06-15T19:37:48.033Z,21.60
2018-06-15T19:40:15.664Z,21.50
2018-06-15T19:42:43.440Z,21.60
2018-06-15T19:45:12.569Z,21.50
2018-06-15T19:47:40.177Z,21.50
2018-06-15T19:50:07.750Z,21.40
2018-06-15T19:52:36.223Z,21.40
2018-06-15T19:55:03.810Z,21.40
2018-06-15T19:57:31.428Z,21.30
2018-06-15T20:00:02.728Z,21.20
2018-06-15T20:02:30.573Z,21.20
2018-06-15T20:04:58.709Z,21.20
2018-06-15T20:07:26.397Z,21.20
2018-06-15T20:09:54.066Z,21.10
2018-06-15T20:12:21.804Z,21.10
2018-06-15T20:14:50.236Z,21.10
2018-06-15T20:17:19.605Z,21.10
2018-06-15T20:19:47.582Z,21.00
2018-06-15T20:22:15.834Z,20.90
2018-06-15T20:27:11.233Z,20.90
2018-06-15T20:29:39.363Z,20.90
2018-06-15T20:32:07.049Z,20.90
2018-06-15T20:34:34.704Z,20.90
2018-06-15T20:37:02.369Z,20.90
2018-06-15T20:39:30.003Z,20.80
2018-06-15T20:41:57.563Z,20.80
2018-06-15T20:44:26.214Z,20.80
2018-06-15T20:46:54.135Z,20.80
2018-06-15T20:49:21.785Z,20.60
2018-06-15T20:51:49.298Z,20.60
2018-06-15T20:54:16.827Z,20.50
2018-06-15T20:56:44.472Z,20.50
2018-06-15T20:59:12.072Z,20.50
2018-06-15T21:01:39.694Z,20.40
2018-06-15T21:04:07.262Z,20.40
2018-06-15T21:06:34.898Z,20.40
2018-06-15T21:12:02.518Z,20.30
2018-06-15T21:14:35.910Z,20.30
2018-06-15T21:17:03.630Z,20.20
2018-06-15T21:19:31.267Z,20.20
2018-06-15T21:22:06.776Z,20.10
2018-06-15T21:24:48.631Z,20.10
2018-06-15T21:27:16.306Z,20.10
2018-06-15T21:29:43.900Z,20.00
2018-06-15T21:32:11.538Z,20.00
2018-06-15T21:34:40.213Z,20.00
2018-06-15T21:37:07.749Z,20.00
2018-06-15T21:39:36.380Z,19.90
2018-06-15T21:42:03.859Z,19.90
2018-06-15T21:47:31.199Z,19.80
2018-06-15T21:52:59.467Z,19.60
2018-06-15T21:55:27.151Z,19.50
2018-06-15T21:57:54.870Z,19.50
2018-06-15T22:00:23.932Z,19.50
2018-06-15T22:02:51.578Z,19.50
2018-06-15T22:08:19.443Z,19.40
2018-06-15T22:10:57.280Z,19.40
2018-06-15T22:13:25.039Z,19.40
2018-06-15T22:15:52.655Z,19.30
2018-06-15T22:18:20.298Z,19.30
2018-06-15T22:20:47.961Z,19.30
2018-06-15T22:23:16.539Z,19.20
2018-06-15T22:25:44.128Z,19.10
2018-06-15T22:28:22.368Z,19.10
2018-06-15T22:30:49.871Z,19.10
2018-06-15T22:33:17.401Z,19.00
2018-06-15T22:35:44.965Z,18.90
2018-06-15T22:38:12.781Z,18.90
2018-06-15T22:40:40.374Z,18.90
2018-06-15T22:43:07.984Z,18.80
2018-06-15T22:45:36.620Z,18.80
2018-06-15T22:51:17.037Z,18.80
2018-06-15T22:53:44.630Z,18.70
2018-06-15T22:56:12.547Z,18.70
2018-06-15T22:58:59.176Z,18.70
2018-06-15T23:01:26.955Z,18.70
2018-06-15T23:03:54.763Z,18.60
2018-06-15T23:06:22.507Z,18.60
2018-06-15T23:08:50.045Z,18.50
2018-06-15T23:11:17.584Z,18.50
2018-06-15T23:13:45.213Z,18.50
2018-06-15T23:16:12.754Z,18.40
2018-06-15T23:18:47.536Z,18.40
2018-06-15T23:21:15.162Z,18.30
2018-06-15T23:23:42.903Z,18.30
2018-06-15T23:26:10.792Z,18.30
2018-06-15T23:28:38.756Z,18.30
2018-06-15T23:31:07.648Z,18.20
2018-06-15T23:33:35.390Z,18.20
2018-06-15T23:36:03.072Z,18.20
2018-06-15T23:38:31.676Z,18.20
2018-06-15T23:40:59.404Z,18.20
2018-06-15T23:43:27.165Z,18.10
2018-06-15T23:45:54.830Z,18.00
2018-06-15T23:48:22.491Z,18.00
2018-06-15T23:50:50.117Z,18.00
2018-06-15T23:53:17.752Z,18.00
2018-06-15T23:55:45.371Z,17.90
2018-06-15T23:58:13.073Z,17.90
